sensor_id;sensor_type;location;lat;lon;timestamp;P1;durP1;ratioP1;P2;durP2;ratioP2
20988;SDS011;10653;47.052;15.410;2023-10-09T00:01:24;2.97;;;1.20;;
20988;SDS011;10653;47.052;15.410;2023-10-09T00:03:51;2.87;;;1.40;;
20988;SDS011;10653;47.052;15.410;2023-10-09T00:06:18;1.90;;;1.00;;
20988;SDS011;10653;47.052;15.410;2023-10-09T00:09:03;2.37;;;1.70;;
20988;SDS011;10653;47.052;15.410;2023-10-09T00:11:47;3.00;;;1.70;;
20988;SDS011;10653;47.052;15.410;2023-10-09T00:14:13;1.60;;;1.50;;
20988;SDS011;10653;47.052;15.410;2023-10-09T00:16:43;3.23;;;1.40;;
20988;SDS011;10653;47.052;15.410;2023-10-09T00:19:30;3.67;;;1.70;;
20988;SDS011;10653;47.052;15.410;2023-10-09T00:21:56;1.77;;;1.50;;
20988;SDS011;10653;47.052;15.410;2023-10-09T00:24:25;2.20;;;1.57;;
20988;SDS011;10653;47.052;15.410;2023-10-09T00:26:52;1.67;;;1.53;;
20988;SDS011;10653;47.052;15.410;2023-10-09T00:29:20;3.00;;;1.80;;
20988;SDS011;10653;47.052;15.410;2023-10-09T00:31:50;3.23;;;1.87;;
20988;SDS011;10653;47.052;15.410;2023-10-09T00:34:19;2.40;;;1.50;;
20988;SDS011;10653;47.052;15.410;2023-10-09T00:36:47;2.73;;;1.47;;
20988;SDS011;10653;47.052;15.410;2023-10-09T00:39:17;4.87;;;2.00;;
20988;SDS011;10653;47.052;15.410;2023-10-09T00:41:48;3.70;;;1.93;;
20988;SDS011;10653;47.052;15.410;2023-10-09T00:44:14;4.67;;;1.60;;
20988;SDS011;10653;47.052;15.410;2023-10-09T00:46:40;2.70;;;1.73;;
20988;SDS011;10653;47.052;15.410;2023-10-09T00:49:08;2.80;;;1.40;;
20988;SDS011;10653;47.052;15.410;2023-10-09T00:51:35;4.23;;;2.23;;
20988;SDS011;10653;47.052;15.410;2023-10-09T00:54:05;2.60;;;1.70;;
20988;SDS011;10653;47.052;15.410;2023-10-09T00:56:38;2.80;;;1.70;;
20988;SDS011;10653;47.052;15.410;2023-10-09T00:59:09;2.57;;;1.53;;
20988;SDS011;10653;47.052;15.410;2023-10-09T01:01:45;2.27;;;2.07;;
20988;SDS011;10653;47.052;15.410;2023-10-09T01:04:29;3.90;;;1.53;;
20988;SDS011;10653;47.052;15.410;2023-10-09T01:07:02;2.37;;;1.77;;
20988;SDS011;10653;47.052;15.410;2023-10-09T01:09:34;6.47;;;3.80;;
20988;SDS011;10653;47.052;15.410;2023-10-09T01:12:07;3.47;;;2.40;;
20988;SDS011;10653;47.052;15.410;2023-10-09T01:14:41;2.43;;;1.60;;
20988;SDS011;10653;47.052;15.410;2023-10-09T01:17:08;2.03;;;1.53;;
20988;SDS011;10653;47.052;15.410;2023-10-09T01:19:34;2.60;;;1.23;;
20988;SDS011;10653;47.052;15.410;2023-10-09T01:22:00;3.10;;;1.87;;
20988;SDS011;10653;47.052;15.410;2023-10-09T01:24:37;2.90;;;1.70;;
20988;SDS011;10653;47.052;15.410;2023-10-09T01:27:04;3.03;;;1.57;;
20988;SDS011;10653;47.052;15.410;2023-10-09T01:29:36;2.63;;;1.67;;
20988;SDS011;10653;47.052;15.410;2023-10-09T01:32:02;4.20;;;1.50;;
20988;SDS011;10653;47.052;15.410;2023-10-09T01:34:30;5.73;;;2.13;;
20988;SDS011;10653;47.052;15.410;2023-10-09T01:37:13;4.27;;;1.50;;
20988;SDS011;10653;47.052;15.410;2023-10-09T01:40:02;2.20;;;1.63;;
20988;SDS011;10653;47.052;15.410;2023-10-09T01:42:46;1.57;;;1.20;;
20988;SDS011;10653;47.052;15.410;2023-10-09T01:45:12;2.73;;;2.00;;
20988;SDS011;10653;47.052;15.410;2023-10-09T01:47:52;2.60;;;1.37;;
20988;SDS011;10653;47.052;15.410;2023-10-09T01:50:21;1.90;;;1.57;;
20988;SDS011;10653;47.052;15.410;2023-10-09T01:52:56;5.10;;;2.30;;
20988;SDS011;10653;47.052;15.410;2023-10-09T01:55:22;3.57;;;1.67;;
20988;SDS011;10653;47.052;15.410;2023-10-09T01:58:05;3.00;;;1.70;;
20988;SDS011;10653;47.052;15.410;2023-10-09T02:00:42;2.27;;;1.30;;
20988;SDS011;10653;47.052;15.410;2023-10-09T02:03:13;2.80;;;1.50;;
20988;SDS011;10653;47.052;15.410;2023-10-09T02:05:41;3.10;;;1.63;;
20988;SDS011;10653;47.052;15.410;2023-10-09T02:08:07;5.50;;;2.07;;
20988;SDS011;10653;47.052;15.410;2023-10-09T02:10:34;1.63;;;1.40;;
20988;SDS011;10653;47.052;15.410;2023-10-09T02:13:03;1.73;;;1.63;;
20988;SDS011;10653;47.052;15.410;2023-10-09T02:15:43;3.93;;;1.50;;
20988;SDS011;10653;47.052;15.410;2023-10-09T02:23:30;2.57;;;1.37;;
20988;SDS011;10653;47.052;15.410;2023-10-09T02:26:12;3.00;;;1.70;;
20988;SDS011;10653;47.052;15.410;2023-10-09T02:28:50;3.53;;;1.40;;
20988;SDS011;10653;47.052;15.410;2023-10-09T02:31:40;4.30;;;1.80;;
20988;SDS011;10653;47.052;15.410;2023-10-09T02:34:11;2.83;;;1.90;;
20988;SDS011;10653;47.052;15.410;2023-10-09T02:36:38;1.80;;;0.97;;
20988;SDS011;10653;47.052;15.410;2023-10-09T02:39:07;2.30;;;1.60;;
20988;SDS011;10653;47.052;15.410;2023-10-09T02:41:47;2.73;;;1.70;;
20988;SDS011;10653;47.052;15.410;2023-10-09T02:44:15;2.80;;;1.60;;
20988;SDS011;10653;47.052;15.410;2023-10-09T02:46:42;3.20;;;1.97;;
20988;SDS011;10653;47.052;15.410;2023-10-09T02:49:09;2.00;;;1.50;;
20988;SDS011;10653;47.052;15.410;2023-10-09T02:51:41;3.70;;;1.80;;
20988;SDS011;10653;47.052;15.410;2023-10-09T02:54:07;3.27;;;1.87;;
20988;SDS011;10653;47.052;15.410;2023-10-09T02:56:46;4.87;;;1.60;;
20988;SDS011;10653;47.052;15.410;2023-10-09T02:59:19;3.70;;;1.90;;
20988;SDS011;10653;47.052;15.410;2023-10-09T03:01:47;5.13;;;1.80;;
20988;SDS011;10653;47.052;15.410;2023-10-09T03:04:13;3.23;;;1.70;;
20988;SDS011;10653;47.052;15.410;2023-10-09T03:06:40;4.40;;;1.90;;
20988;SDS011;10653;47.052;15.410;2023-10-09T03:09:18;6.40;;;2.90;;
20988;SDS011;10653;47.052;15.410;2023-10-09T03:11:51;3.83;;;2.20;;
20988;SDS011;10653;47.052;15.410;2023-10-09T03:14:22;3.13;;;2.53;;
20988;SDS011;10653;47.052;15.410;2023-10-09T03:16:54;6.07;;;2.13;;
20988;SDS011;10653;47.052;15.410;2023-10-09T03:19:25;3.17;;;2.33;;
20988;SDS011;10653;47.052;15.410;2023-10-09T03:21:54;4.13;;;1.67;;
20988;SDS011;10653;47.052;15.410;2023-10-09T03:24:24;9.00;;;2.40;;
20988;SDS011;10653;47.052;15.410;2023-10-09T03:26:52;4.80;;;2.20;;
20988;SDS011;10653;47.052;15.410;2023-10-09T03:29:21;4.30;;;2.30;;
20988;SDS011;10653;47.052;15.410;2023-10-09T03:31:47;4.40;;;2.57;;
20988;SDS011;10653;47.052;15.410;2023-10-09T03:34:15;4.27;;;2.60;;
20988;SDS011;10653;47.052;15.410;2023-10-09T03:36:41;4.73;;;2.07;;
20988;SDS011;10653;47.052;15.410;2023-10-09T03:39:08;2.40;;;2.03;;
20988;SDS011;10653;47.052;15.410;2023-10-09T03:42:04;5.83;;;2.77;;
20988;SDS011;10653;47.052;15.410;2023-10-09T03:44:31;5.03;;;2.57;;
20988;SDS011;10653;47.052;15.410;2023-10-09T03:46:59;2.80;;;2.17;;
20988;SDS011;10653;47.052;15.410;2023-10-09T03:49:26;3.07;;;1.73;;
20988;SDS011;10653;47.052;15.410;2023-10-09T03:51:54;2.50;;;2.27;;
20988;SDS011;10653;47.052;15.410;2023-10-09T03:54:20;4.53;;;3.10;;
20988;SDS011;10653;47.052;15.410;2023-10-09T03:56:47;4.03;;;2.23;;
20988;SDS011;10653;47.052;15.410;2023-10-09T03:59:15;4.97;;;2.67;;
20988;SDS011;10653;47.052;15.410;2023-10-09T04:01:41;2.70;;;1.83;;
20988;SDS011;10653;47.052;15.410;2023-10-09T04:04:09;2.80;;;2.00;;
20988;SDS011;10653;47.052;15.410;2023-10-09T04:06:38;6.77;;;2.57;;
20988;SDS011;10653;47.052;15.410;2023-10-09T04:09:05;4.87;;;2.03;;
20988;SDS011;10653;47.052;15.410;2023-10-09T04:11:47;3.63;;;2.30;;
20988;SDS011;10653;47.052;15.410;2023-10-09T04:14:15;2.53;;;2.10;;
20988;SDS011;10653;47.052;15.410;2023-10-09T04:16:57;4.10;;;2.17;;
20988;SDS011;10653;47.052;15.410;2023-10-09T04:19:49;2.40;;;2.13;;
20988;SDS011;10653;47.052;15.410;2023-10-09T04:22:34;3.70;;;2.10;;
20988;SDS011;10653;47.052;15.410;2023-10-09T04:25:05;4.83;;;2.70;;
20988;SDS011;10653;47.052;15.410;2023-10-09T04:27:39;4.87;;;2.60;;
20988;SDS011;10653;47.052;15.410;2023-10-09T04:30:05;4.70;;;2.10;;
20988;SDS011;10653;47.052;15.410;2023-10-09T04:32:32;3.30;;;1.97;;
20988;SDS011;10653;47.052;15.410;2023-10-09T04:34:59;3.20;;;2.20;;
20988;SDS011;10653;47.052;15.410;2023-10-09T04:37:44;8.13;;;2.20;;
20988;SDS011;10653;47.052;15.410;2023-10-09T04:40:17;3.10;;;1.50;;
20988;SDS011;10653;47.052;15.410;2023-10-09T04:43:02;4.83;;;2.47;;
20988;SDS011;10653;47.052;15.410;2023-10-09T04:45:31;2.07;;;1.83;;
20988;SDS011;10653;47.052;15.410;2023-10-09T04:48:16;2.27;;;1.90;;
20988;SDS011;10653;47.052;15.410;2023-10-09T04:50:57;3.40;;;2.20;;
20988;SDS011;10653;47.052;15.410;2023-10-09T04:53:56;2.60;;;1.60;;
20988;SDS011;10653;47.052;15.410;2023-10-09T04:56:55;2.43;;;1.90;;
20988;SDS011;10653;47.052;15.410;2023-10-09T04:59:21;2.40;;;1.73;;
20988;SDS011;10653;47.052;15.410;2023-10-09T05:01:50;3.00;;;1.90;;
20988;SDS011;10653;47.052;15.410;2023-10-09T05:04:24;3.73;;;2.33;;
20988;SDS011;10653;47.052;15.410;2023-10-09T05:07:08;3.27;;;2.50;;
20988;SDS011;10653;47.052;15.410;2023-10-09T05:09:48;4.37;;;2.20;;
20988;SDS011;10653;47.052;15.410;2023-10-09T05:12:32;2.13;;;1.90;;
20988;SDS011;10653;47.052;15.410;2023-10-09T05:14:58;4.50;;;1.90;;
20988;SDS011;10653;47.052;15.410;2023-10-09T05:17:36;2.30;;;2.10;;
20988;SDS011;10653;47.052;15.410;2023-10-09T05:20:03;2.93;;;2.50;;
20988;SDS011;10653;47.052;15.410;2023-10-09T05:23:05;2.30;;;1.77;;
20988;SDS011;10653;47.052;15.410;2023-10-09T05:25:50;4.10;;;2.90;;
20988;SDS011;10653;47.052;15.410;2023-10-09T05:28:21;4.40;;;2.63;;
20988;SDS011;10653;47.052;15.410;2023-10-09T05:30:56;3.70;;;2.43;;
20988;SDS011;10653;47.052;15.410;2023-10-09T05:33:31;3.23;;;2.20;;
20988;SDS011;10653;47.052;15.410;2023-10-09T05:35:58;3.83;;;2.63;;
20988;SDS011;10653;47.052;15.410;2023-10-09T05:38:31;4.13;;;2.80;;
20988;SDS011;10653;47.052;15.410;2023-10-09T05:41:00;3.40;;;2.57;;
20988;SDS011;10653;47.052;15.410;2023-10-09T05:43:46;2.63;;;2.13;;
20988;SDS011;10653;47.052;15.410;2023-10-09T05:46:31;2.80;;;2.50;;
20988;SDS011;10653;47.052;15.410;2023-10-09T05:49:17;2.37;;;2.03;;
20988;SDS011;10653;47.052;15.410;2023-10-09T05:51:49;3.00;;;2.30;;
20988;SDS011;10653;47.052;15.410;2023-10-09T05:54:18;7.83;;;2.63;;
20988;SDS011;10653;47.052;15.410;2023-10-09T05:57:03;2.73;;;2.47;;
20988;SDS011;10653;47.052;15.410;2023-10-09T05:59:52;4.33;;;2.47;;
20988;SDS011;10653;47.052;15.410;2023-10-09T06:02:37;3.63;;;3.07;;
20988;SDS011;10653;47.052;15.410;2023-10-09T06:05:23;3.23;;;2.40;;
20988;SDS011;10653;47.052;15.410;2023-10-09T06:08:17;3.37;;;2.33;;
20988;SDS011;10653;47.052;15.410;2023-10-09T06:10:49;5.73;;;2.67;;
20988;SDS011;10653;47.052;15.410;2023-10-09T06:13:30;4.90;;;2.67;;
20988;SDS011;10653;47.052;15.410;2023-10-09T06:16:02;3.10;;;2.50;;
20988;SDS011;10653;47.052;15.410;2023-10-09T06:18:44;2.40;;;2.17;;
20988;SDS011;10653;47.052;15.410;2023-10-09T06:21:11;3.77;;;2.37;;
20988;SDS011;10653;47.052;15.410;2023-10-09T06:23:55;4.00;;;2.00;;
20988;SDS011;10653;47.052;15.410;2023-10-09T06:26:43;4.17;;;2.40;;
20988;SDS011;10653;47.052;15.410;2023-10-09T06:29:29;2.40;;;2.10;;
20988;SDS011;10653;47.052;15.410;2023-10-09T06:34:51;4.07;;;2.77;;
20988;SDS011;10653;47.052;15.410;2023-10-09T06:37:22;3.43;;;2.87;;
20988;SDS011;10653;47.052;15.410;2023-10-09T06:39:48;3.80;;;2.23;;
20988;SDS011;10653;47.052;15.410;2023-10-09T06:42:27;4.27;;;2.60;;
20988;SDS011;10653;47.052;15.410;2023-10-09T06:47:32;6.00;;;2.57;;
20988;SDS011;10653;47.052;15.410;2023-10-09T06:50:11;3.00;;;2.53;;
20988;SDS011;10653;47.052;15.410;2023-10-09T06:52:46;8.87;;;3.20;;
20988;SDS011;10653;47.052;15.410;2023-10-09T06:55:22;3.73;;;2.90;;
20988;SDS011;10653;47.052;15.410;2023-10-09T06:57:58;7.80;;;2.80;;
20988;SDS011;10653;47.052;15.410;2023-10-09T07:00:27;4.53;;;2.93;;
20988;SDS011;10653;47.052;15.410;2023-10-09T07:03:12;3.87;;;2.70;;
20988;SDS011;10653;47.052;15.410;2023-10-09T07:05:38;6.00;;;2.50;;
20988;SDS011;10653;47.052;15.410;2023-10-09T07:08:29;5.33;;;2.80;;
20988;SDS011;10653;47.052;15.410;2023-10-09T07:11:02;4.07;;;2.60;;
20988;SDS011;10653;47.052;15.410;2023-10-09T07:14:14;4.93;;;2.47;;
20988;SDS011;10653;47.052;15.410;2023-10-09T07:17:05;5.30;;;3.47;;
20988;SDS011;10653;47.052;15.410;2023-10-09T07:19:51;3.87;;;2.47;;
20988;SDS011;10653;47.052;15.410;2023-10-09T07:22:20;3.20;;;2.60;;
20988;SDS011;10653;47.052;15.410;2023-10-09T07:24:46;6.87;;;2.90;;
20988;SDS011;10653;47.052;15.410;2023-10-09T07:27:26;3.03;;;2.30;;
20988;SDS011;10653;47.052;15.410;2023-10-09T07:30:14;3.73;;;2.30;;
20988;SDS011;10653;47.052;15.410;2023-10-09T07:32:57;3.83;;;2.10;;
20988;SDS011;10653;47.052;15.410;2023-10-09T07:35:36;3.13;;;2.83;;
20988;SDS011;10653;47.052;15.410;2023-10-09T07:38:08;4.13;;;2.43;;
20988;SDS011;10653;47.052;15.410;2023-10-09T07:40:38;2.30;;;1.63;;
20988;SDS011;10653;47.052;15.410;2023-10-09T07:43:23;3.90;;;1.77;;
20988;SDS011;10653;47.052;15.410;2023-10-09T07:46:10;3.03;;;1.90;;
20988;SDS011;10653;47.052;15.410;2023-10-09T07:48:58;4.80;;;2.70;;
20988;SDS011;10653;47.052;15.410;2023-10-09T07:51:25;1.33;;;1.23;;
20988;SDS011;10653;47.052;15.410;2023-10-09T07:53:58;2.50;;;1.67;;
20988;SDS011;10653;47.052;15.410;2023-10-09T07:59:05;2.60;;;1.90;;
20988;SDS011;10653;47.052;15.410;2023-10-09T08:01:45;2.10;;;1.80;;
20988;SDS011;10653;47.052;15.410;2023-10-09T08:04:23;2.97;;;1.70;;
20988;SDS011;10653;47.052;15.410;2023-10-09T08:07:08;3.33;;;2.00;;
20988;SDS011;10653;47.052;15.410;2023-10-09T08:09:37;3.03;;;2.40;;
20988;SDS011;10653;47.052;15.410;2023-10-09T08:12:11;2.97;;;1.83;;
20988;SDS011;10653;47.052;15.410;2023-10-09T08:14:56;3.83;;;2.17;;
20988;SDS011;10653;47.052;15.410;2023-10-09T08:17:44;2.03;;;1.83;;
20988;SDS011;10653;47.052;15.410;2023-10-09T08:20:16;2.30;;;1.53;;
20988;SDS011;10653;47.052;15.410;2023-10-09T08:22:42;3.80;;;1.77;;
20988;SDS011;10653;47.052;15.410;2023-10-09T08:25:09;3.07;;;1.70;;
20988;SDS011;10653;47.052;15.410;2023-10-09T08:27:54;2.97;;;1.50;;
20988;SDS011;10653;47.052;15.410;2023-10-09T08:30:22;2.40;;;1.93;;
20988;SDS011;10653;47.052;15.410;2023-10-09T08:32:51;3.00;;;1.70;;
20988;SDS011;10653;47.052;15.410;2023-10-09T08:35:31;3.73;;;2.27;;
20988;SDS011;10653;47.052;15.410;2023-10-09T08:38:01;2.80;;;1.60;;
20988;SDS011;10653;47.052;15.410;2023-10-09T08:40:33;2.87;;;1.87;;
20988;SDS011;10653;47.052;15.410;2023-10-09T08:43:14;3.80;;;2.70;;
20988;SDS011;10653;47.052;15.410;2023-10-09T08:45:44;3.13;;;1.90;;
20988;SDS011;10653;47.052;15.410;2023-10-09T08:48:10;4.50;;;2.17;;
20988;SDS011;10653;47.052;15.410;2023-10-09T08:50:46;3.57;;;1.90;;
20988;SDS011;10653;47.052;15.410;2023-10-09T08:53:13;3.40;;;1.90;;
20988;SDS011;10653;47.052;15.410;2023-10-09T08:55:41;5.10;;;2.67;;
20988;SDS011;10653;47.052;15.410;2023-10-09T08:58:07;3.73;;;2.10;;
20988;SDS011;10653;47.052;15.410;2023-10-09T09:00:42;3.60;;;2.40;;
20988;SDS011;10653;47.052;15.410;2023-10-09T09:03:11;4.27;;;1.93;;
20988;SDS011;10653;47.052;15.410;2023-10-09T09:05:37;3.70;;;1.83;;
20988;SDS011;10653;47.052;15.410;2023-10-09T09:08:03;3.03;;;2.10;;
20988;SDS011;10653;47.052;15.410;2023-10-09T09:10:29;4.27;;;2.20;;
20988;SDS011;10653;47.052;15.410;2023-10-09T09:13:03;3.90;;;2.23;;
20988;SDS011;10653;47.052;15.410;2023-10-09T09:15:30;5.30;;;2.57;;
20988;SDS011;10653;47.052;15.410;2023-10-09T09:18:07;4.73;;;2.50;;
20988;SDS011;10653;47.052;15.410;2023-10-09T09:20:36;4.40;;;2.63;;
20988;SDS011;10653;47.052;15.410;2023-10-09T09:23:05;2.77;;;2.40;;
20988;SDS011;10653;47.052;15.410;2023-10-09T09:28:09;4.67;;;2.30;;
20988;SDS011;10653;47.052;15.410;2023-10-09T09:30:37;3.30;;;2.07;;
20988;SDS011;10653;47.052;15.410;2023-10-09T09:35:58;3.30;;;2.47;;
20988;SDS011;10653;47.052;15.410;2023-10-09T09:38:27;1.90;;;1.80;;
20988;SDS011;10653;47.052;15.410;2023-10-09T09:40:56;3.60;;;2.50;;
20988;SDS011;10653;47.052;15.410;2023-10-09T09:43:22;3.30;;;1.87;;
20988;SDS011;10653;47.052;15.410;2023-10-09T09:45:50;4.23;;;2.90;;
20988;SDS011;10653;47.052;15.410;2023-10-09T09:48:21;5.80;;;2.80;;
20988;SDS011;10653;47.052;15.410;2023-10-09T09:50:49;3.97;;;2.47;;
20988;SDS011;10653;47.052;15.410;2023-10-09T09:53:19;4.10;;;2.10;;
20988;SDS011;10653;47.052;15.410;2023-10-09T09:55:52;3.83;;;2.20;;
20988;SDS011;10653;47.052;15.410;2023-10-09T09:58:24;4.90;;;2.90;;
20988;SDS011;10653;47.052;15.410;2023-10-09T10:00:59;3.70;;;2.83;;
20988;SDS011;10653;47.052;15.410;2023-10-09T10:03:27;8.13;;;2.70;;
20988;SDS011;10653;47.052;15.410;2023-10-09T10:05:58;5.27;;;2.53;;
20988;SDS011;10653;47.052;15.410;2023-10-09T10:08:29;5.93;;;3.00;;
20988;SDS011;10653;47.052;15.410;2023-10-09T10:10:59;7.20;;;3.00;;
20988;SDS011;10653;47.052;15.410;2023-10-09T10:19:10;2.60;;;2.03;;
20988;SDS011;10653;47.052;15.410;2023-10-09T10:21:32;4.37;;;2.30;;
20988;SDS011;10653;47.052;15.410;2023-10-09T10:24:08;2.80;;;1.87;;
20988;SDS011;10653;47.052;15.410;2023-10-09T10:29:43;3.57;;;2.50;;
20988;SDS011;10653;47.052;15.410;2023-10-09T10:32:11;4.63;;;1.70;;
20988;SDS011;10653;47.052;15.410;2023-10-09T10:37:21;4.10;;;3.17;;
20988;SDS011;10653;47.052;15.410;2023-10-09T10:39:53;4.40;;;1.83;;
20988;SDS011;10653;47.052;15.410;2023-10-09T10:42:24;6.63;;;2.63;;
20988;SDS011;10653;47.052;15.410;2023-10-09T10:45:02;5.73;;;1.97;;
20988;SDS011;10653;47.052;15.410;2023-10-09T10:47:48;4.53;;;2.17;;
20988;SDS011;10653;47.052;15.410;2023-10-09T10:50:17;4.00;;;1.73;;
20988;SDS011;10653;47.052;15.410;2023-10-09T10:53:13;5.80;;;1.80;;
20988;SDS011;10653;47.052;15.410;2023-10-09T10:55:57;7.70;;;1.83;;
20988;SDS011;10653;47.052;15.410;2023-10-09T10:58:23;5.37;;;2.07;;
20988;SDS011;10653;47.052;15.410;2023-10-09T11:00:56;4.43;;;1.40;;
20988;SDS011;10653;47.052;15.410;2023-10-09T11:03:22;4.40;;;1.77;;
20988;SDS011;10653;47.052;15.410;2023-10-09T11:05:55;5.70;;;2.00;;
20988;SDS011;10653;47.052;15.410;2023-10-09T11:08:24;3.00;;;1.20;;
20988;SDS011;10653;47.052;15.410;2023-10-09T11:11:10;5.70;;;1.90;;
20988;SDS011;10653;47.052;15.410;2023-10-09T11:13:40;4.07;;;1.97;;
20988;SDS011;10653;47.052;15.410;2023-10-09T11:16:18;4.43;;;1.77;;
20988;SDS011;10653;47.052;15.410;2023-10-09T11:19:06;4.10;;;1.70;;
20988;SDS011;10653;47.052;15.410;2023-10-09T11:21:52;3.13;;;1.50;;
20988;SDS011;10653;47.052;15.410;2023-10-09T11:24:45;9.73;;;1.90;;
20988;SDS011;10653;47.052;15.410;2023-10-09T11:27:12;12.80;;;2.30;;
20988;SDS011;10653;47.052;15.410;2023-10-09T11:29:49;3.97;;;1.73;;
20988;SDS011;10653;47.052;15.410;2023-10-09T11:32:16;2.17;;;1.80;;
20988;SDS011;10653;47.052;15.410;2023-10-09T11:34:43;6.07;;;1.90;;
20988;SDS011;10653;47.052;15.410;2023-10-09T11:37:17;4.00;;;1.87;;
20988;SDS011;10653;47.052;15.410;2023-10-09T11:39:55;5.77;;;1.87;;
20988;SDS011;10653;47.052;15.410;2023-10-09T11:42:22;2.40;;;1.47;;
20988;SDS011;10653;47.052;15.410;2023-10-09T11:45:23;5.53;;;1.87;;
20988;SDS011;10653;47.052;15.410;2023-10-09T11:47:53;3.63;;;1.80;;
20988;SDS011;10653;47.052;15.410;2023-10-09T11:50:39;2.23;;;1.50;;
20988;SDS011;10653;47.052;15.410;2023-10-09T11:53:13;5.67;;;1.90;;
20988;SDS011;10653;47.052;15.410;2023-10-09T11:55:45;3.30;;;1.67;;
20988;SDS011;10653;47.052;15.410;2023-10-09T11:58:15;10.00;;;2.20;;
20988;SDS011;10653;47.052;15.410;2023-10-09T12:00:48;5.80;;;2.17;;
20988;SDS011;10653;47.052;15.410;2023-10-09T12:03:14;3.77;;;2.70;;
20988;SDS011;10653;47.052;15.410;2023-10-09T12:05:41;4.00;;;2.33;;
20988;SDS011;10653;47.052;15.410;2023-10-09T12:08:09;4.00;;;2.27;;
20988;SDS011;10653;47.052;15.410;2023-10-09T12:10:36;5.03;;;2.47;;
20988;SDS011;10653;47.052;15.410;2023-10-09T12:13:06;3.90;;;2.00;;
20988;SDS011;10653;47.052;15.410;2023-10-09T12:15:32;5.93;;;2.70;;
20988;SDS011;10653;47.052;15.410;2023-10-09T12:18:05;4.73;;;2.20;;
20988;SDS011;10653;47.052;15.410;2023-10-09T12:20:34;3.67;;;2.00;;
20988;SDS011;10653;47.052;15.410;2023-10-09T12:23:01;5.83;;;2.37;;
20988;SDS011;10653;47.052;15.410;2023-10-09T12:25:29;6.47;;;2.70;;
20988;SDS011;10653;47.052;15.410;2023-10-09T12:27:56;5.47;;;2.40;;
20988;SDS011;10653;47.052;15.410;2023-10-09T12:30:23;8.73;;;2.50;;
20988;SDS011;10653;47.052;15.410;2023-10-09T12:33:01;5.70;;;3.00;;
20988;SDS011;10653;47.052;15.410;2023-10-09T12:35:27;4.67;;;2.73;;
20988;SDS011;10653;47.052;15.410;2023-10-09T12:37:53;5.97;;;2.33;;
20988;SDS011;10653;47.052;15.410;2023-10-09T12:40:20;5.30;;;2.80;;
20988;SDS011;10653;47.052;15.410;2023-10-09T12:42:52;3.83;;;2.33;;
20988;SDS011;10653;47.052;15.410;2023-10-09T12:45:19;9.07;;;2.67;;
20988;SDS011;10653;47.052;15.410;2023-10-09T12:47:51;5.90;;;2.33;;
20988;SDS011;10653;47.052;15.410;2023-10-09T12:50:17;4.80;;;2.53;;
20988;SDS011;10653;47.052;15.410;2023-10-09T12:52:52;5.43;;;2.37;;
20988;SDS011;10653;47.052;15.410;2023-10-09T12:55:18;4.13;;;2.67;;
20988;SDS011;10653;47.052;15.410;2023-10-09T12:57:46;9.60;;;2.67;;
20988;SDS011;10653;47.052;15.410;2023-10-09T13:00:13;5.70;;;2.60;;
20988;SDS011;10653;47.052;15.410;2023-10-09T13:02:50;6.00;;;3.33;;
20988;SDS011;10653;47.052;15.410;2023-10-09T13:05:16;11.10;;;2.63;;
20988;SDS011;10653;47.052;15.410;2023-10-09T13:07:51;8.30;;;2.87;;
20988;SDS011;10653;47.052;15.410;2023-10-09T13:10:18;5.90;;;2.53;;
20988;SDS011;10653;47.052;15.410;2023-10-09T13:12:44;7.67;;;2.90;;
20988;SDS011;10653;47.052;15.410;2023-10-09T13:15:11;7.30;;;3.10;;
20988;SDS011;10653;47.052;15.410;2023-10-09T13:17:37;6.63;;;2.30;;
20988;SDS011;10653;47.052;15.410;2023-10-09T13:20:04;4.97;;;2.90;;
20988;SDS011;10653;47.052;15.410;2023-10-09T13:22:41;4.50;;;2.80;;
20988;SDS011;10653;47.052;15.410;2023-10-09T13:25:08;8.53;;;2.93;;
20988;SDS011;10653;47.052;15.410;2023-10-09T13:27:40;5.30;;;3.20;;
20988;SDS011;10653;47.052;15.410;2023-10-09T13:30:06;6.73;;;2.77;;
20988;SDS011;10653;47.052;15.410;2023-10-09T13:32:34;11.70;;;3.47;;
20988;SDS011;10653;47.052;15.410;2023-10-09T13:35:03;7.57;;;3.50;;
20988;SDS011;10653;47.052;15.410;2023-10-09T13:37:30;4.60;;;2.97;;
20988;SDS011;10653;47.052;15.410;2023-10-09T13:40:02;4.27;;;2.80;;
20988;SDS011;10653;47.052;15.410;2023-10-09T13:42:34;7.90;;;3.50;;
20988;SDS011;10653;47.052;15.410;2023-10-09T13:45:02;6.93;;;3.20;;
20988;SDS011;10653;47.052;15.410;2023-10-09T13:47:40;10.60;;;3.30;;
20988;SDS011;10653;47.052;15.410;2023-10-09T13:50:11;5.73;;;3.13;;
20988;SDS011;10653;47.052;15.410;2023-10-09T13:52:38;9.10;;;3.50;;
20988;SDS011;10653;47.052;15.410;2023-10-09T13:55:05;4.97;;;3.10;;
20988;SDS011;10653;47.052;15.410;2023-10-09T13:57:40;6.60;;;2.97;;
20988;SDS011;10653;47.052;15.410;2023-10-09T14:00:10;6.47;;;3.40;;
20988;SDS011;10653;47.052;15.410;2023-10-09T14:02:37;5.33;;;2.87;;
20988;SDS011;10653;47.052;15.410;2023-10-09T14:05:03;6.60;;;3.37;;
20988;SDS011;10653;47.052;15.410;2023-10-09T14:07:29;9.63;;;3.43;;
20988;SDS011;10653;47.052;15.410;2023-10-09T14:09:55;6.40;;;3.23;;
20988;SDS011;10653;47.052;15.410;2023-10-09T14:12:32;4.80;;;2.80;;
20988;SDS011;10653;47.052;15.410;2023-10-09T14:14:59;4.90;;;2.53;;
20988;SDS011;10653;47.052;15.410;2023-10-09T14:17:28;3.97;;;2.70;;
20988;SDS011;10653;47.052;15.410;2023-10-09T14:19:55;6.60;;;3.30;;
20988;SDS011;10653;47.052;15.410;2023-10-09T14:22:41;4.63;;;2.70;;
20988;SDS011;10653;47.052;15.410;2023-10-09T14:25:07;6.20;;;3.07;;
20988;SDS011;10653;47.052;15.410;2023-10-09T14:27:40;5.13;;;2.80;;
20988;SDS011;10653;47.052;15.410;2023-10-09T14:30:07;10.57;;;3.20;;
20988;SDS011;10653;47.052;15.410;2023-10-09T14:32:38;5.60;;;3.17;;
20988;SDS011;10653;47.052;15.410;2023-10-09T14:35:13;6.77;;;2.93;;
20988;SDS011;10653;47.052;15.410;2023-10-09T14:37:39;8.60;;;2.70;;
20988;SDS011;10653;47.052;15.410;2023-10-09T14:40:06;5.00;;;2.37;;
20988;SDS011;10653;47.052;15.410;2023-10-09T14:42:40;6.73;;;3.13;;
20988;SDS011;10653;47.052;15.410;2023-10-09T14:45:13;9.03;;;3.17;;
20988;SDS011;10653;47.052;15.410;2023-10-09T14:47:42;6.90;;;2.60;;
20988;SDS011;10653;47.052;15.410;2023-10-09T14:50:08;5.60;;;3.27;;
20988;SDS011;10653;47.052;15.410;2023-10-09T14:52:36;6.00;;;2.90;;
20988;SDS011;10653;47.052;15.410;2023-10-09T14:55:04;4.30;;;2.23;;
20988;SDS011;10653;47.052;15.410;2023-10-09T14:57:30;5.20;;;2.70;;
20988;SDS011;10653;47.052;15.410;2023-10-09T14:59:59;8.70;;;2.87;;
20988;SDS011;10653;47.052;15.410;2023-10-09T15:02:26;7.13;;;2.77;;
20988;SDS011;10653;47.052;15.410;2023-10-09T15:04:52;3.43;;;2.47;;
20988;SDS011;10653;47.052;15.410;2023-10-09T15:07:18;4.53;;;2.43;;
20988;SDS011;10653;47.052;15.410;2023-10-09T15:09:46;5.63;;;3.00;;
20988;SDS011;10653;47.052;15.410;2023-10-09T15:12:12;8.20;;;3.00;;
20988;SDS011;10653;47.052;15.410;2023-10-09T15:14:38;6.53;;;2.53;;
20988;SDS011;10653;47.052;15.410;2023-10-09T15:17:04;7.83;;;3.20;;
20988;SDS011;10653;47.052;15.410;2023-10-09T15:19:32;5.47;;;2.40;;
20988;SDS011;10653;47.052;15.410;2023-10-09T15:21:58;6.70;;;3.20;;
20988;SDS011;10653;47.052;15.410;2023-10-09T15:24:25;6.87;;;3.43;;
20988;SDS011;10653;47.052;15.410;2023-10-09T15:26:52;5.20;;;2.50;;
20988;SDS011;10653;47.052;15.410;2023-10-09T15:29:22;6.07;;;2.67;;
20988;SDS011;10653;47.052;15.410;2023-10-09T15:31:53;6.93;;;2.80;;
20988;SDS011;10653;47.052;15.410;2023-10-09T15:34:19;4.90;;;3.30;;
20988;SDS011;10653;47.052;15.410;2023-10-09T15:36:46;9.63;;;2.97;;